sensor_id;sensor_type;location;lat;lon;timestamp;temperature;humidity
6581;DHT22;3324;50.796;7.228;2023-01-16T00:00:18;7.00;99.90
6581;DHT22;3324;50.796;7.228;2023-01-16T00:02:44;7.00;99.90
6581;DHT22;3324;50.796;7.228;2023-01-16T00:05:10;7.00;99.90
6581;DHT22;3324;50.796;7.228;2023-01-16T00:07:36;7.00;99.90
6581;DHT22;3324;50.796;7.228;2023-01-16T00:10:03;6.90;99.90
6581;DHT22;3324;50.796;7.228;2023-01-16T00:12:29;7.00;99.90
6581;DHT22;3324;50.796;7.228;2023-01-16T00:14:55;7.00;99.90
6581;DHT22;3324;50.796;7.228;2023-01-16T00:17:20;7.00;99.90
6581;DHT22;3324;50.796;7.228;2023-01-16T00:19:46;7.00;99.90
6581;DHT22;3324;50.796;7.228;2023-01-16T00:22:12;7.00;99.90
6581;DHT22;3324;50.796;7.228;2023-01-16T00:24:37;7.00;99.90
6581;DHT22;3324;50.796;7.228;2023-01-16T00:27:03;7.00;99.90
6581;DHT22;3324;50.796;7.228;2023-01-16T00:29:28;7.00;99.90
6581;DHT22;3324;50.796;7.228;2023-01-16T00:31:54;7.00;99.90
6581;DHT22;3324;50.796;7.228;2023-01-16T00:34:19;7.00;99.90
6581;DHT22;3324;50.796;7.228;2023-01-16T00:36:45;7.00;99.90
6581;DHT22;3324;50.796;7.228;2023-01-16T00:39:11;7.00;99.90
6581;DHT22;3324;50.796;7.228;2023-01-16T00:41:36;7.00;99.90
6581;DHT22;3324;50.796;7.228;2023-01-16T00:44:02;7.00;99.90
6581;DHT22;3324;50.796;7.228;2023-01-16T00:46:28;7.00;99.90
6581;DHT22;3324;50.796;7.228;2023-01-16T00:48:55;7.00;99.90
6581;DHT22;3324;50.796;7.228;2023-01-16T00:51:20;7.00;99.90
6581;DHT22;3324;50.796;7.228;2023-01-16T00:53:46;6.90;99.90
6581;DHT22;3324;50.796;7.228;2023-01-16T00:56:12;6.90;99.90
6581;DHT22;3324;50.796;7.228;2023-01-16T00:58:38;6.90;99.90
6581;DHT22;3324;50.796;7.228;2023-01-16T01:01:03;6.90;99.90
6581;DHT22;3324;50.796;7.228;2023-01-16T01:03:29;7.00;99.90
6581;DHT22;3324;50.796;7.228;2023-01-16T01:05:55;6.90;99.90
6581;DHT22;3324;50.796;7.228;2023-01-16T01:08:21;6.90;99.90
6581;DHT22;3324;50.796;7.228;2023-01-16T01:10:46;6.90;99.90
6581;DHT22;3324;50.796;7.228;2023-01-16T01:13:12;6.90;99.90
6581;DHT22;3324;50.796;7.228;2023-01-16T01:15:38;6.90;99.90
6581;DHT22;3324;50.796;7.228;2023-01-16T01:18:03;7.00;99.90
6581;DHT22;3324;50.796;7.228;2023-01-16T01:20:29;7.00;99.90
6581;DHT22;3324;50.796;7.228;2023-01-16T01:22:55;7.00;99.90
6581;DHT22;3324;50.796;7.228;2023-01-16T01:25:21;7.00;99.90
6581;DHT22;3324;50.796;7.228;2023-01-16T01:27:46;7.00;99.90
6581;DHT22;3324;50.796;7.228;2023-01-16T01:30:12;7.00;99.90
6581;DHT22;3324;50.796;7.228;2023-01-16T01:32:38;6.90;99.90
6581;DHT22;3324;50.796;7.228;2023-01-16T01:35:07;6.90;99.90
6581;DHT22;3324;50.796;7.228;2023-01-16T01:37:33;6.90;99.90
6581;DHT22;3324;50.796;7.228;2023-01-16T01:40:00;6.90;99.90
6581;DHT22;3324;50.796;7.228;2023-01-16T01:42:26;6.90;99.90
6581;DHT22;3324;50.796;7.228;2023-01-16T01:45:25;6.90;99.90
6581;DHT22;3324;50.796;7.228;2023-01-16T01:48:02;6.90;99.90
6581;DHT22;3324;50.796;7.228;2023-01-16T01:55:54;6.80;99.90
6581;DHT22;3324;50.796;7.228;2023-01-16T01:58:22;6.80;99.90
6581;DHT22;3324;50.796;7.228;2023-01-16T02:00:53;6.80;99.90
6581;DHT22;3324;50.796;7.228;2023-01-16T02:03:28;6.70;99.90
6581;DHT22;3324;50.796;7.228;2023-01-16T02:05:57;6.80;99.90
6581;DHT22;3324;50.796;7.228;2023-01-16T02:08:28;6.70;99.90
6581;DHT22;3324;50.796;7.228;2023-01-16T02:11:10;6.90;99.90
6581;DHT22;3324;50.796;7.228;2023-01-16T02:13:54;6.80;99.90
6581;DHT22;3324;50.796;7.228;2023-01-16T02:16:20;6.90;99.90
6581;DHT22;3324;50.796;7.228;2023-01-16T02:19:06;6.80;99.90
6581;DHT22;3324;50.796;7.228;2023-01-16T02:30:25;6.80;99.90
6581;DHT22;3324;50.796;7.228;2023-01-16T02:38:51;7.00;99.90
6581;DHT22;3324;50.796;7.228;2023-01-16T02:43:55;7.00;99.90
6581;DHT22;3324;50.796;7.228;2023-01-16T02:46:34;6.90;99.90
6581;DHT22;3324;50.796;7.228;2023-01-16T02:49:25;6.90;99.90
6581;DHT22;3324;50.796;7.228;2023-01-16T02:55:33;6.80;99.90
6581;DHT22;3324;50.796;7.228;2023-01-16T02:57:43;6.80;99.90
6581;DHT22;3324;50.796;7.228;2023-01-16T03:00:12;6.70;99.90
6581;DHT22;3324;50.796;7.228;2023-01-16T03:02:42;6.60;99.90
6581;DHT22;3324;50.796;7.228;2023-01-16T03:05:08;6.60;99.90
6581;DHT22;3324;50.796;7.228;2023-01-16T03:13:21;6.60;99.90
6581;DHT22;3324;50.796;7.228;2023-01-16T03:21:46;6.40;99.90
6581;DHT22;3324;50.796;7.228;2023-01-16T03:24:03;6.30;99.90
6581;DHT22;3324;50.796;7.228;2023-01-16T03:26:37;6.20;99.90
6581;DHT22;3324;50.796;7.228;2023-01-16T03:32:07;6.20;99.90
6581;DHT22;3324;50.796;7.228;2023-01-16T03:37:38;6.10;99.90
6581;DHT22;3324;50.796;7.228;2023-01-16T03:40:13;6.10;99.90
6581;DHT22;3324;50.796;7.228;2023-01-16T03:42:55;6.00;99.90
6581;DHT22;3324;50.796;7.228;2023-01-16T03:45:39;6.10;99.90
6581;DHT22;3324;50.796;7.228;2023-01-16T03:48:13;6.10;99.90
6581;DHT22;3324;50.796;7.228;2023-01-16T03:50:47;6.10;99.90
6581;DHT22;3324;50.796;7.228;2023-01-16T03:53:17;6.20;99.90
6581;DHT22;3324;50.796;7.228;2023-01-16T03:55:51;6.20;99.90
6581;DHT22;3324;50.796;7.228;2023-01-16T03:58:24;6.20;99.90
6581;DHT22;3324;50.796;7.228;2023-01-16T04:03:35;6.20;99.90
6581;DHT22;3324;50.796;7.228;2023-01-16T04:06:09;6.20;99.90
6581;DHT22;3324;50.796;7.228;2023-01-16T04:08:39;6.40;99.90
6581;DHT22;3324;50.796;7.228;2023-01-16T04:11:06;6.40;99.90
6581;DHT22;3324;50.796;7.228;2023-01-16T04:13:35;6.30;99.90
6581;DHT22;3324;50.796;7.228;2023-01-16T04:16:04;6.30;99.90
6581;DHT22;3324;50.796;7.228;2023-01-16T04:18:34;6.20;99.90
6581;DHT22;3324;50.796;7.228;2023-01-16T04:21:03;6.30;99.90
6581;DHT22;3324;50.796;7.228;2023-01-16T04:23:29;6.30;99.90
6581;DHT22;3324;50.796;7.228;2023-01-16T04:25:55;6.30;99.90
6581;DHT22;3324;50.796;7.228;2023-01-16T04:28:20;6.30;99.90
6581;DHT22;3324;50.796;7.228;2023-01-16T04:30:46;6.30;99.90
6581;DHT22;3324;50.796;7.228;2023-01-16T04:33:11;6.30;99.90
6581;DHT22;3324;50.796;7.228;2023-01-16T04:35:37;6.20;99.90
6581;DHT22;3324;50.796;7.228;2023-01-16T04:38:02;6.30;99.90
6581;DHT22;3324;50.796;7.228;2023-01-16T04:40:28;6.30;99.90
6581;DHT22;3324;50.796;7.228;2023-01-16T04:42:54;6.30;99.90
6581;DHT22;3324;50.796;7.228;2023-01-16T04:45:21;6.40;99.90
6581;DHT22;3324;50.796;7.228;2023-01-16T04:47:47;6.40;99.90
6581;DHT22;3324;50.796;7.228;2023-01-16T04:50:13;6.40;99.90
6581;DHT22;3324;50.796;7.228;2023-01-16T04:52:40;6.40;99.90
6581;DHT22;3324;50.796;7.228;2023-01-16T04:55:06;6.40;99.90
6581;DHT22;3324;50.796;7.228;2023-01-16T04:57:32;6.40;99.90
6581;DHT22;3324;50.796;7.228;2023-01-16T04:59:57;6.50;99.90
6581;DHT22;3324;50.796;7.228;2023-01-16T05:02:23;6.50;99.90
6581;DHT22;3324;50.796;7.228;2023-01-16T05:04:48;6.50;99.90
6581;DHT22;3324;50.796;7.228;2023-01-16T05:07:14;6.50;99.90
6581;DHT22;3324;50.796;7.228;2023-01-16T05:09:40;6.50;99.90
6581;DHT22;3324;50.796;7.228;2023-01-16T05:12:05;6.40;99.90
6581;DHT22;3324;50.796;7.228;2023-01-16T05:14:31;6.40;99.90
6581;DHT22;3324;50.796;7.228;2023-01-16T05:16:56;6.40;99.90
6581;DHT22;3324;50.796;7.228;2023-01-16T05:19:22;6.40;99.90
6581;DHT22;3324;50.796;7.228;2023-01-16T05:21:48;6.40;99.90
6581;DHT22;3324;50.796;7.228;2023-01-16T05:24:13;6.40;99.90
6581;DHT22;3324;50.796;7.228;2023-01-16T05:26:39;6.40;99.90
6581;DHT22;3324;50.796;7.228;2023-01-16T05:29:04;6.50;99.90
6581;DHT22;3324;50.796;7.228;2023-01-16T05:31:30;6.50;99.90
6581;DHT22;3324;50.796;7.228;2023-01-16T05:33:55;6.50;99.90
6581;DHT22;3324;50.796;7.228;2023-01-16T05:36:21;6.60;99.90
6581;DHT22;3324;50.796;7.228;2023-01-16T05:38:47;6.60;99.90
6581;DHT22;3324;50.796;7.228;2023-01-16T05:41:12;6.60;99.90
6581;DHT22;3324;50.796;7.228;2023-01-16T05:43:38;6.50;99.90
6581;DHT22;3324;50.796;7.228;2023-01-16T05:46:04;6.60;99.90
6581;DHT22;3324;50.796;7.228;2023-01-16T05:48:30;6.60;99.90
6581;DHT22;3324;50.796;7.228;2023-01-16T05:50:57;6.60;99.90
6581;DHT22;3324;50.796;7.228;2023-01-16T05:53:25;6.50;99.90
6581;DHT22;3324;50.796;7.228;2023-01-16T05:55:53;6.60;99.90
6581;DHT22;3324;50.796;7.228;2023-01-16T05:58:19;6.60;99.90
6581;DHT22;3324;50.796;7.228;2023-01-16T06:00:45;6.60;99.90
6581;DHT22;3324;50.796;7.228;2023-01-16T06:03:10;6.60;99.90
6581;DHT22;3324;50.796;7.228;2023-01-16T06:05:36;6.60;99.90
6581;DHT22;3324;50.796;7.228;2023-01-16T06:08:02;6.60;99.90
6581;DHT22;3324;50.796;7.228;2023-01-16T06:10:28;6.50;99.90
6581;DHT22;3324;50.796;7.228;2023-01-16T06:12:54;6.60;99.90
6581;DHT22;3324;50.796;7.228;2023-01-16T06:15:19;6.60;99.90
6581;DHT22;3324;50.796;7.228;2023-01-16T06:17:45;6.60;99.90
6581;DHT22;3324;50.796;7.228;2023-01-16T06:20:11;6.70;99.90
6581;DHT22;3324;50.796;7.228;2023-01-16T06:22:37;6.70;99.90
6581;DHT22;3324;50.796;7.228;2023-01-16T06:25:03;6.80;99.90
6581;DHT22;3324;50.796;7.228;2023-01-16T06:27:29;6.70;99.90
6581;DHT22;3324;50.796;7.228;2023-01-16T06:29:57;6.70;99.90
6581;DHT22;3324;50.796;7.228;2023-01-16T06:32:22;6.60;99.90
6581;DHT22;3324;50.796;7.228;2023-01-16T06:34:48;6.60;99.90
6581;DHT22;3324;50.796;7.228;2023-01-16T06:37:13;6.70;99.90
6581;DHT22;3324;50.796;7.228;2023-01-16T06:39:39;6.70;99.90
6581;DHT22;3324;50.796;7.228;2023-01-16T06:42:05;6.70;99.90
6581;DHT22;3324;50.796;7.228;2023-01-16T06:44:33;6.60;99.90
6581;DHT22;3324;50.796;7.228;2023-01-16T06:47:00;6.60;99.90
6581;DHT22;3324;50.796;7.228;2023-01-16T06:49:26;6.60;99.90
6581;DHT22;3324;50.796;7.228;2023-01-16T06:51:51;6.60;99.90
6581;DHT22;3324;50.796;7.228;2023-01-16T06:54:17;6.60;99.90
6581;DHT22;3324;50.796;7.228;2023-01-16T06:56:43;6.50;99.90
6581;DHT22;3324;50.796;7.228;2023-01-16T06:59:08;6.50;99.90
6581;DHT22;3324;50.796;7.228;2023-01-16T07:01:34;6.50;99.90
6581;DHT22;3324;50.796;7.228;2023-01-16T07:03:59;6.50;99.90
6581;DHT22;3324;50.796;7.228;2023-01-16T07:06:25;6.50;99.90
6581;DHT22;3324;50.796;7.228;2023-01-16T07:08:51;6.60;99.90
6581;DHT22;3324;50.796;7.228;2023-01-16T07:11:17;6.60;99.90
6581;DHT22;3324;50.796;7.228;2023-01-16T07:13:43;6.60;99.90
6581;DHT22;3324;50.796;7.228;2023-01-16T07:16:14;6.60;99.90
6581;DHT22;3324;50.796;7.228;2023-01-16T07:18:58;6.60;99.90
6581;DHT22;3324;50.796;7.228;2023-01-16T07:21:44;6.70;99.90
6581;DHT22;3324;50.796;7.228;2023-01-16T07:24:48;6.70;99.90
6581;DHT22;3324;50.796;7.228;2023-01-16T07:27:14;6.80;99.90
6581;DHT22;3324;50.796;7.228;2023-01-16T07:29:40;6.70;99.90
6581;DHT22;3324;50.796;7.228;2023-01-16T07:32:06;6.80;99.90
6581;DHT22;3324;50.796;7.228;2023-01-16T07:34:32;6.70;99.90
6581;DHT22;3324;50.796;7.228;2023-01-16T07:37:00;6.70;99.90
6581;DHT22;3324;50.796;7.228;2023-01-16T07:39:25;6.80;99.90
6581;DHT22;3324;50.796;7.228;2023-01-16T07:41:51;6.80;99.90
6581;DHT22;3324;50.796;7.228;2023-01-16T07:44:17;6.80;99.90
6581;DHT22;3324;50.796;7.228;2023-01-16T07:46:43;6.80;99.90
6581;DHT22;3324;50.796;7.228;2023-01-16T07:49:08;6.80;99.90
6581;DHT22;3324;50.796;7.228;2023-01-16T07:51:34;6.80;99.90
6581;DHT22;3324;50.796;7.228;2023-01-16T07:53:59;6.80;99.90
6581;DHT22;3324;50.796;7.228;2023-01-16T07:56:25;6.80;99.90
6581;DHT22;3324;50.796;7.228;2023-01-16T07:58:50;6.80;99.90
6581;DHT22;3324;50.796;7.228;2023-01-16T08:01:19;6.80;99.90
6581;DHT22;3324;50.796;7.228;2023-01-16T08:03:45;6.80;99.90
6581;DHT22;3324;50.796;7.228;2023-01-16T08:06:10;6.80;99.90
6581;DHT22;3324;50.796;7.228;2023-01-16T08:08:36;6.80;99.90
6581;DHT22;3324;50.796;7.228;2023-01-16T08:11:01;6.80;99.90
6581;DHT22;3324;50.796;7.228;2023-01-16T08:13:47;6.70;99.90
6581;DHT22;3324;50.796;7.228;2023-01-16T08:16:12;6.70;99.90
6581;DHT22;3324;50.796;7.228;2023-01-16T08:18:38;6.70;99.90
6581;DHT22;3324;50.796;7.228;2023-01-16T08:21:04;6.70;99.90
6581;DHT22;3324;50.796;7.228;2023-01-16T08:23:29;6.60;99.90
6581;DHT22;3324;50.796;7.228;2023-01-16T08:25:55;6.60;99.90
6581;DHT22;3324;50.796;7.228;2023-01-16T08:28:21;6.60;99.90
6581;DHT22;3324;50.796;7.228;2023-01-16T08:30:47;6.60;99.90
6581;DHT22;3324;50.796;7.228;2023-01-16T08:33:12;6.60;99.90
6581;DHT22;3324;50.796;7.228;2023-01-16T08:35:38;6.60;99.90
6581;DHT22;3324;50.796;7.228;2023-01-16T08:38:03;6.50;99.90
6581;DHT22;3324;50.796;7.228;2023-01-16T08:40:29;6.50;99.90
6581;DHT22;3324;50.796;7.228;2023-01-16T08:42:54;6.40;99.90
6581;DHT22;3324;50.796;7.228;2023-01-16T08:45:39;6.40;99.90
6581;DHT22;3324;50.796;7.228;2023-01-16T08:48:25;6.50;99.90
6581;DHT22;3324;50.796;7.228;2023-01-16T08:51:15;6.40;99.90
6581;DHT22;3324;50.796;7.228;2023-01-16T08:53:52;6.40;99.90
6581;DHT22;3324;50.796;7.228;2023-01-16T08:56:18;6.40;99.90
6581;DHT22;3324;50.796;7.228;2023-01-16T08:58:44;6.40;99.90
6581;DHT22;3324;50.796;7.228;2023-01-16T09:01:10;6.40;99.90
6581;DHT22;3324;50.796;7.228;2023-01-16T09:03:35;6.40;99.90
6581;DHT22;3324;50.796;7.228;2023-01-16T09:06:01;6.40;99.90
6581;DHT22;3324;50.796;7.228;2023-01-16T09:08:27;6.30;99.90
6581;DHT22;3324;50.796;7.228;2023-01-16T09:10:52;6.40;99.90
6581;DHT22;3324;50.796;7.228;2023-01-16T09:13:36;6.40;99.90
6581;DHT22;3324;50.796;7.228;2023-01-16T09:16:16;6.30;99.90
6581;DHT22;3324;50.796;7.228;2023-01-16T09:18:41;6.40;99.90
6581;DHT22;3324;50.796;7.228;2023-01-16T09:21:07;6.40;99.90
6581;DHT22;3324;50.796;7.228;2023-01-16T09:23:32;6.30;99.90
6581;DHT22;3324;50.796;7.228;2023-01-16T09:25:58;6.30;99.90
6581;DHT22;3324;50.796;7.228;2023-01-16T09:28:24;6.30;99.90
6581;DHT22;3324;50.796;7.228;2023-01-16T09:30:51;6.30;99.90
6581;DHT22;3324;50.796;7.228;2023-01-16T09:33:16;6.30;99.90
6581;DHT22;3324;50.796;7.228;2023-01-16T09:35:42;6.30;99.90
6581;DHT22;3324;50.796;7.228;2023-01-16T09:38:07;6.40;99.90
6581;DHT22;3324;50.796;7.228;2023-01-16T09:40:33;6.20;99.90
6581;DHT22;3324;50.796;7.228;2023-01-16T09:43:37;6.30;99.90
6581;DHT22;3324;50.796;7.228;2023-01-16T09:51:32;6.30;99.90
6581;DHT22;3324;50.796;7.228;2023-01-16T09:54:03;6.30;99.90
6581;DHT22;3324;50.796;7.228;2023-01-16T09:56:55;6.40;99.90
6581;DHT22;3324;50.796;7.228;2023-01-16T09:59:43;6.40;99.90
6581;DHT22;3324;50.796;7.228;2023-01-16T10:02:31;6.40;99.90
6581;DHT22;3324;50.796;7.228;2023-01-16T10:04:59;6.30;99.90
6581;DHT22;3324;50.796;7.228;2023-01-16T10:07:46;6.30;99.90
6581;DHT22;3324;50.796;7.228;2023-01-16T10:10:17;6.30;99.90
6581;DHT22;3324;50.796;7.228;2023-01-16T10:12:58;6.30;99.90
6581;DHT22;3324;50.796;7.228;2023-01-16T10:15:37;6.30;99.90
6581;DHT22;3324;50.796;7.228;2023-01-16T10:18:16;6.30;99.90
6581;DHT22;3324;50.796;7.228;2023-01-16T10:23:54;6.30;99.90
6581;DHT22;3324;50.796;7.228;2023-01-16T10:26:54;6.30;99.90
6581;DHT22;3324;50.796;7.228;2023-01-16T10:34:47;6.20;99.90
6581;DHT22;3324;50.796;7.228;2023-01-16T10:37:18;6.20;99.90
6581;DHT22;3324;50.796;7.228;2023-01-16T10:39:44;6.20;99.90
6581;DHT22;3324;50.796;7.228;2023-01-16T10:42:12;6.20;99.90
6581;DHT22;3324;50.796;7.228;2023-01-16T10:47:47;6.20;99.90
6581;DHT22;3324;50.796;7.228;2023-01-16T10:50:31;6.10;99.90
6581;DHT22;3324;50.796;7.228;2023-01-16T10:52:57;6.20;99.90
6581;DHT22;3324;50.796;7.228;2023-01-16T10:55:22;6.20;99.90
6581;DHT22;3324;50.796;7.228;2023-01-16T10:57:54;6.20;99.90
6581;DHT22;3324;50.796;7.228;2023-01-16T11:00:27;6.20;99.90
6581;DHT22;3324;50.796;7.228;2023-01-16T11:03:19;6.20;99.90
6581;DHT22;3324;50.796;7.228;2023-01-16T11:05:44;6.30;99.90
6581;DHT22;3324;50.796;7.228;2023-01-16T11:08:18;6.20;99.90
6581;DHT22;3324;50.796;7.228;2023-01-16T11:10:46;6.20;99.90
6581;DHT22;3324;50.796;7.228;2023-01-16T11:13:23;6.20;99.90
6581;DHT22;3324;50.796;7.228;2023-01-16T11:18:56;6.20;99.90
6581;DHT22;3324;50.796;7.228;2023-01-16T11:24:14;6.20;99.90
6581;DHT22;3324;50.796;7.228;2023-01-16T11:26:47;6.20;99.90
6581;DHT22;3324;50.796;7.228;2023-01-16T11:29:16;6.20;99.90
6581;DHT22;3324;50.796;7.228;2023-01-16T11:31:48;6.30;99.90
6581;DHT22;3324;50.796;7.228;2023-01-16T11:34:18;6.30;99.90
6581;DHT22;3324;50.796;7.228;2023-01-16T11:36:46;6.40;99.90
6581;DHT22;3324;50.796;7.228;2023-01-16T11:39:24;6.40;99.90
6581;DHT22;3324;50.796;7.228;2023-01-16T11:41:52;6.50;99.90
6581;DHT22;3324;50.796;7.228;2023-01-16T11:44:21;6.50;99.90
6581;DHT22;3324;50.796;7.228;2023-01-16T11:47:06;6.50;99.90
6581;DHT22;3324;50.796;7.228;2023-01-16T11:49:37;6.60;99.90
6581;DHT22;3324;50.796;7.228;2023-01-16T11:52:03;6.60;99.90
6581;DHT22;3324;50.796;7.228;2023-01-16T11:54:32;6.70;99.90
6581;DHT22;3324;50.796;7.228;2023-01-16T11:57:13;6.80;99.90
6581;DHT22;3324;50.796;7.228;2023-01-16T11:59:44;6.70;99.90
6581;DHT22;3324;50.796;7.228;2023-01-16T12:17:30;6.70;99.90
6581;DHT22;3324;50.796;7.228;2023-01-16T12:20:11;6.70;99.90
6581;DHT22;3324;50.796;7.228;2023-01-16T12:23:20;6.70;99.90
6581;DHT22;3324;50.796;7.228;2023-01-16T12:51:14;6.80;99.90
6581;DHT22;3324;50.796;7.228;2023-01-16T13:01:59;6.80;99.90
6581;DHT22;3324;50.796;7.228;2023-01-16T13:04:33;6.70;99.90
6581;DHT22;3324;50.796;7.228;2023-01-16T13:07:00;6.70;99.90
6581;DHT22;3324;50.796;7.228;2023-01-16T13:09:35;6.80;99.90
6581;DHT22;3324;50.796;7.228;2023-01-16T13:12:22;6.80;99.90
6581;DHT22;3324;50.796;7.228;2023-01-16T13:15:21;6.70;99.90
6581;DHT22;3324;50.796;7.228;2023-01-16T13:20:47;6.80;99.90
6581;DHT22;3324;50.796;7.228;2023-01-16T13:23:17;6.80;99.90
6581;DHT22;3324;50.796;7.228;2023-01-16T13:25:47;6.80;99.90
6581;DHT22;3324;50.796;7.228;2023-01-16T13:28:24;6.80;99.90
6581;DHT22;3324;50.796;7.228;2023-01-16T13:30:56;6.80;99.90
6581;DHT22;3324;50.796;7.228;2023-01-16T13:33:28;6.80;99.90
6581;DHT22;3324;50.796;7.228;2023-01-16T13:41:30;6.80;99.90
6581;DHT22;3324;50.796;7.228;2023-01-16T13:44:25;6.80;99.90
6581;DHT22;3324;50.796;7.228;2023-01-16T13:47:31;6.80;99.90
6581;DHT22;3324;50.796;7.228;2023-01-16T13:52:44;6.70;99.90
6581;DHT22;3324;50.796;7.228;2023-01-16T13:55:41;6.70;99.90
6581;DHT22;3324;50.796;7.228;2023-01-16T13:58:25;6.70;99.90
6581;DHT22;3324;50.796;7.228;2023-01-16T14:01:04;6.60;99.90
6581;DHT22;3324;50.796;7.228;2023-01-16T14:03:31;6.70;99.90
6581;DHT22;3324;50.796;7.228;2023-01-16T14:09:11;6.70;99.90
6581;DHT22;3324;50.796;7.228;2023-01-16T14:14:47;6.70;99.90
6581;DHT22;3324;50.796;7.228;2023-01-16T14:23:54;6.70;99.90
6581;DHT22;3324;50.796;7.228;2023-01-16T14:26:34;6.80;99.90
6581;DHT22;3324;50.796;7.228;2023-01-16T14:29:05;6.80;99.90
6581;DHT22;3324;50.796;7.228;2023-01-16T14:31:39;6.70;99.90
6581;DHT22;3324;50.796;7.228;2023-01-16T14:34:05;6.70;99.90
6581;DHT22;3324;50.796;7.228;2023-01-16T14:36:39;6.70;99.90
6581;DHT22;3324;50.796;7.228;2023-01-16T14:39:05;6.70;99.90
6581;DHT22;3324;50.796;7.228;2023-01-16T14:41:32;6.70;99.90
6581;DHT22;3324;50.796;7.228;2023-01-16T14:44:20;6.70;99.90
6581;DHT22;3324;50.796;7.228;2023-01-16T14:47:25;6.70;99.90
6581;DHT22;3324;50.796;7.228;2023-01-16T14:50:16;6.80;99.90
6581;DHT22;3324;50.796;7.228;2023-01-16T14:56:01;6.80;99.90
6581;DHT22;3324;50.796;7.228;2023-01-16T14:58:50;6.80;99.90
6581;DHT22;3324;50.796;7.228;2023-01-16T15:01:27;6.80;99.90
6581;DHT22;3324;50.796;7.228;2023-01-16T15:04:14;6.80;99.90
6581;DHT22;3324;50.796;7.228;2023-01-16T15:06:50;6.80;99.90
6581;DHT22;3324;50.796;7.228;2023-01-16T15:09:19;6.80;99.90
6581;DHT22;3324;50.796;7.228;2023-01-16T15:12:02;6.80;99.90
6581;DHT22;3324;50.796;7.228;2023-01-16T15:14:28;6.80;99.90
6581;DHT22;3324;50.796;7.228;2023-01-16T15:16:59;6.80;99.90
6581;DHT22;3324;50.796;7.228;2023-01-16T15:20:16;6.70;99.90
6581;DHT22;3324;50.796;7.228;2023-01-16T15:31:26;6.70;99.90
6581;DHT22;3324;50.796;7.228;2023-01-16T15:34:01;6.70;99.90
6581;DHT22;3324;50.796;7.228;2023-01-16T15:36:40;6.70;99.90
6581;DHT22;3324;50.796;7.228;2023-01-16T15:44:44;6.70;99.90
6581;DHT22;3324;50.796;7.228;2023-01-16T15:52:38;6.60;99.90
6581;DHT22;3324;50.796;7.228;2023-01-16T15:55:25;6.60;99.90
6581;DHT22;3324;50.796;7.228;2023-01-16T15:57:54;6.50;99.90
6581;DHT22;3324;50.796;7.228;2023-01-16T16:00:25;6.60;99.90
6581;DHT22;3324;50.796;7.228;2023-01-16T16:02:57;6.50;99.90
6581;DHT22;3324;50.796;7.228;2023-01-16T16:05:23;6.50;99.90
6581;DHT22;3324;50.796;7.228;2023-01-16T16:07:50;6.50;99.90
6581;DHT22;3324;50.796;7.228;2023-01-16T16:10:17;6.50;99.90
6581;DHT22;3324;50.796;7.228;2023-01-16T16:13:04;6.70;99.90
6581;DHT22;3324;50.796;7.228;2023-01-16T16:15:30;6.70;99.90
6581;DHT22;3324;50.796;7.228;2023-01-16T16:18:17;6.60;99.90
6581;DHT22;3324;50.796;7.228;2023-01-16T16:20:45;6.60;99.90
6581;DHT22;3324;50.796;7.228;2023-01-16T16:23:24;6.50;99.90
6581;DHT22;3324;50.796;7.228;2023-01-16T16:26:02;6.60;99.90
6581;DHT22;3324;50.796;7.228;2023-01-16T16:33:32;6.70;99.90
6581;DHT22;3324;50.796;7.228;2023-01-16T16:36:01;6.70;99.90
6581;DHT22;3324;50.796;7.228;2023-01-16T16:39:03;6.90;99.90
6581;DHT22;3324;50.796;7.228;2023-01-16T16:44:33;6.90;99.90
6581;DHT22;3324;50.796;7.228;2023-01-16T16:46:59;6.90;99.90
6581;DHT22;3324;50.796;7.228;2023-01-16T16:49:26;7.00;99.90
6581;DHT22;3324;50.796;7.228;2023-01-16T16:51:52;7.00;99.90
6581;DHT22;3324;50.796;7.228;2023-01-16T16:54:18;6.90;99.90
6581;DHT22;3324;50.796;7.228;2023-01-16T16:56:50;6.80;99.90
6581;DHT22;3324;50.796;7.228;2023-01-16T16:59:20;6.80;99.90
6581;DHT22;3324;50.796;7.228;2023-01-16T17:01:49;6.80;99.90
6581;DHT22;3324;50.796;7.228;2023-01-16T17:04:16;6.70;99.90
6581;DHT22;3324;50.796;7.228;2023-01-16T17:06:44;6.70;99.90
6581;DHT22;3324;50.796;7.228;2023-01-16T17:09:12;6.70;99.90
6581;DHT22;3324;50.796;7.228;2023-01-16T17:11:43;6.80;99.90
6581;DHT22;3324;50.796;7.228;2023-01-16T17:14:08;6.80;99.90
6581;DHT22;3324;50.796;7.228;2023-01-16T17:16:34;6.80;99.90
6581;DHT22;3324;50.796;7.228;2023-01-16T17:21:33;6.70;99.90
6581;DHT22;3324;50.796;7.228;2023-01-16T17:23:59;6.60;99.90
6581;DHT22;3324;50.796;7.228;2023-01-16T17:26:24;6.60;99.90
6581;DHT22;3324;50.796;7.228;2023-01-16T17:28:50;6.60;99.90
6581;DHT22;3324;50.796;7.228;2023-01-16T17:31:19;6.60;99.90
6581;DHT22;3324;50.796;7.228;2023-01-16T17:33:46;6.60;99.90
6581;DHT22;3324;50.796;7.228;2023-01-16T17:36:19;6.60;99.90
6581;DHT22;3324;50.796;7.228;2023-01-16T17:38:45;6.50;99.90
6581;DHT22;3324;50.796;7.228;2023-01-16T17:41:18;6.40;99.90
6581;DHT22;3324;50.796;7.228;2023-01-16T17:44:08;6.50;99.90
6581;DHT22;3324;50.796;7.228;2023-01-16T17:47:11;6.40;99.90
6581;DHT22;3324;50.796;7.228;2023-01-16T17:49:37;6.40;99.90
6581;DHT22;3324;50.796;7.228;2023-01-16T17:52:23;6.40;99.90
6581;DHT22;3324;50.796;7.228;2023-01-16T17:54:50;6.40;99.90
6581;DHT22;3324;50.796;7.228;2023-01-16T17:57:34;6.40;99.90
6581;DHT22;3324;50.796;7.228;2023-01-16T17:59:59;6.40;99.90
6581;DHT22;3324;50.796;7.228;2023-01-16T18:02:25;6.40;99.90
6581;DHT22;3324;50.796;7.228;2023-01-16T18:04:51;6.40;99.90
6581;DHT22;3324;50.796;7.228;2023-01-16T18:07:17;6.40;99.90
6581;DHT22;3324;50.796;7.228;2023-01-16T18:09:43;6.40;99.90
6581;DHT22;3324;50.796;7.228;2023-01-16T18:12:09;6.50;99.90
6581;DHT22;3324;50.796;7.228;2023-01-16T18:14:54;6.50;99.90
6581;DHT22;3324;50.796;7.228;2023-01-16T18:17:38;6.50;99.90
6581;DHT22;3324;50.796;7.228;2023-01-16T18:20:04;6.60;99.90
6581;DHT22;3324;50.796;7.228;2023-01-16T18:22:34;6.50;99.90
6581;DHT22;3324;50.796;7.228;2023-01-16T18:25:00;6.60;99.90
6581;DHT22;3324;50.796;7.228;2023-01-16T18:27:27;6.60;99.90
6581;DHT22;3324;50.796;7.228;2023-01-16T18:29:53;6.60;99.90
6581;DHT22;3324;50.796;7.228;2023-01-16T18:32:19;6.50;99.90
6581;DHT22;3324;50.796;7.228;2023-01-16T18:34:47;6.50;99.90
6581;DHT22;3324;50.796;7.228;2023-01-16T18:37:13;6.50;99.90
6581;DHT22;3324;50.796;7.228;2023-01-16T18:39:39;6.50;99.90
6581;DHT22;3324;50.796;7.228;2023-01-16T18:42:24;6.40;99.90
6581;DHT22;3324;50.796;7.228;2023-01-16T18:45:11;6.50;99.90
6581;DHT22;3324;50.796;7.228;2023-01-16T18:47:55;6.50;99.90
6581;DHT22;3324;50.796;7.228;2023-01-16T18:50:40;6.40;99.90
6581;DHT22;3324;50.796;7.228;2023-01-16T18:53:32;6.50;99.90
6581;DHT22;3324;50.796;7.228;2023-01-16T18:56:22;6.50;99.90
6581;DHT22;3324;50.796;7.228;2023-01-16T18:59:14;6.40;99.90
6581;DHT22;3324;50.796;7.228;2023-01-16T19:02:07;6.40;99.90
6581;DHT22;3324;50.796;7.228;2023-01-16T19:04:49;6.40;99.90
6581;DHT22;3324;50.796;7.228;2023-01-16T19:07:22;6.40;99.90
6581;DHT22;3324;50.796;7.228;2023-01-16T19:09:54;6.40;99.90
6581;DHT22;3324;50.796;7.228;2023-01-16T19:12:22;6.40;99.90
6581;DHT22;3324;50.796;7.228;2023-01-16T19:14:50;6.40;99.90
6581;DHT22;3324;50.796;7.228;2023-01-16T19:17:17;6.50;99.90
6581;DHT22;3324;50.796;7.228;2023-01-16T19:19:43;6.40;99.90
6581;DHT22;3324;50.796;7.228;2023-01-16T19:22:08;6.40;99.90
6581;DHT22;3324;50.796;7.228;2023-01-16T19:24:34;6.50;99.90
6581;DHT22;3324;50.796;7.228;2023-01-16T19:27:01;6.40;99.90
6581;DHT22;3324;50.796;7.228;2023-01-16T19:29:27;6.40;99.90
6581;DHT22;3324;50.796;7.228;2023-01-16T19:31:55;6.40;99.90
6581;DHT22;3324;50.796;7.228;2023-01-16T19:34:21;6.40;99.90
6581;DHT22;3324;50.796;7.228;2023-01-16T19:36:51;6.30;99.90